Time;durP1;ratioP1;P1;durP2;ratioP2;P2;SDS_P1;SDS_P2;PMS_P1;PMS_P2;Temp;Humidity;BMP_temperature;BMP_pressure;BME280_temperature;BME280_humidity;BME280_pressure;Samples;Min_cycle;Max_cycle;Signal;HPM_P1;HPM_P2
2021/04/07 00:04:18;;;;;;;0.80;0.47;;;;;;;0.99;100.00;98519.84;10524102;28;20174;-74
2021/04/07 00:09:37;;;;;;;0.90;0.50;;;;;;;0.96;99.30;98525.19;10539200;28;20597;-75
2021/04/07 00:14:56;;;;;;;0.80;0.40;;;;;;;1.16;99.42;98527.63;10523500;28;20466;-74
2021/04/07 00:20:18;;;;;;;0.80;0.50;;;;;;;1.06;100.00;98517.31;10540225;28;20185;-75
2021/04/07 00:25:37;;;;;;;3.33;0.80;;;;;;;1.09;100.00;98519.31;10539314;28;20226;-74
2021/04/07 00:30:58;;;;;;;0.80;0.50;;;;;;;1.05;99.15;98514.97;10538406;28;20181;-73
2021/04/07 00:36:17;;;;;;;3.40;1.17;;;;;;;0.96;96.17;98517.84;10539251;28;20181;-75
2021/04/07 00:41:35;;;;;;;0.80;0.40;;;;;;;0.82;96.76;98514.00;10539460;28;20182;-74
2021/04/07 00:46:54;;;;;;;2.93;0.70;;;;;;;0.73;96.79;98507.97;10522359;28;20205;-74
2021/04/07 00:52:14;;;;;;;0.80;0.47;;;;;;;0.78;95.51;98519.34;10539298;28;20281;-77
2021/04/07 00:57:33;;;;;;;0.80;0.57;;;;;;;0.75;93.40;98532.78;10523857;28;20181;-76
2021/04/07 01:03:03;;;;;;;0.80;0.50;;;;;;;0.77;93.46;98527.00;10537481;28;20649;-75
2021/04/07 01:08:22;;;;;;;0.83;0.53;;;;;;;0.77;92.52;98530.50;10538468;28;20198;-75
2021/04/07 01:13:41;;;;;;;0.80;0.40;;;;;;;0.68;93.08;98526.41;10538710;28;20174;-74
2021/04/07 01:19:00;;;;;;;0.80;0.40;;;;;;;0.67;91.74;98546.47;10547134;28;20181;-75
2021/04/07 01:24:20;;;;;;;0.90;0.63;;;;;;;0.69;91.54;98552.31;10546553;28;20296;-75
2021/04/07 01:29:39;;;;;;;1.27;1.17;;;;;;;0.74;92.82;98555.56;10544916;28;20293;-75
2021/04/07 01:34:58;;;;;;;0.80;0.50;;;;;;;0.63;93.36;98562.63;10546373;28;20173;-76
2021/04/07 01:40:17;;;;;;;0.80;0.50;;;;;;;0.55;95.19;98568.19;10531055;28;20174;-76
2021/04/07 01:45:37;;;;;;;1.00;0.70;;;;;;;0.77;94.79;98578.44;10544624;28;20182;-76
2021/04/07 01:50:57;;;;;;;0.90;0.60;;;;;;;0.83;93.47;98581.34;10545893;28;20178;-75
2021/04/07 01:56:16;;;;;;;0.97;0.87;;;;;;;0.75;95.42;98588.81;10530441;28;20174;-76
2021/04/07 02:01:38;;;;;;;0.80;0.40;;;;;;;0.78;95.10;98592.44;10544149;28;20166;-75
2021/04/07 02:06:57;;;;;;;1.20;1.10;;;;;;;0.79;95.65;98591.28;10544917;28;20209;-75
2021/04/07 02:12:17;;;;;;;0.90;0.70;;;;;;;0.55;97.30;98598.75;10545060;28;20634;-75
2021/04/07 02:17:35;;;;;;;0.97;0.77;;;;;;;0.64;96.37;98602.09;10543132;28;20178;-75
2021/04/07 02:22:54;;;;;;;0.80;0.40;;;;;;;0.61;97.90;98607.41;10544610;28;20174;-75
2021/04/07 02:28:13;;;;;;;0.90;0.80;;;;;;;0.48;98.81;98608.59;10542161;28;20230;-76
2021/04/07 02:33:32;;;;;;;0.80;0.50;;;;;;;0.53;97.53;98611.81;10542872;28;20174;-75
2021/04/07 02:38:51;;;;;;;1.20;0.87;;;;;;;0.53;98.06;98622.66;10528555;28;20181;-75
2021/04/07 02:44:10;;;;;;;0.90;0.70;;;;;;;0.44;98.72;98613.91;10542485;28;20384;-75
2021/04/07 02:49:30;;;;;;;0.80;0.40;;;;;;;0.36;99.71;98620.25;10543143;28;20206;-74
2021/04/07 02:54:49;;;;;;;0.90;0.70;;;;;;;0.30;100.00;98624.31;10543314;28;20178;-75
2021/04/07 03:00:09;;;;;;;0.80;0.50;;;;;;;0.17;100.00;98627.41;10541685;28;20257;-75
2021/04/07 03:05:28;;;;;;;3.73;1.20;;;;;;;0.15;100.00;98637.78;10542865;28;20174;-75
2021/04/07 03:10:47;;;;;;;0.90;0.70;;;;;;;0.20;100.00;98642.94;10542557;28;20174;-75
2021/04/07 03:16:06;;;;;;;1.17;1.07;;;;;;;0.11;100.00;98647.69;10525647;28;20206;-75
2021/04/07 03:21:25;;;;;;;1.03;0.93;;;;;;;0.16;100.00;98647.47;10542203;28;20567;-76
2021/04/07 03:26:44;;;;;;;0.97;0.87;;;;;;;0.14;100.00;98653.22;10541223;28;20691;-77
2021/04/07 03:32:04;;;;;;;1.00;0.90;;;;;;;0.02;100.00;98650.56;10540481;28;20534;-76
2021/04/07 03:37:23;;;;;;;1.20;1.07;;;;;;;0.00;100.00;98657.44;10541656;28;20185;-75
2021/04/07 03:42:43;;;;;;;1.50;0.83;;;;;;;-0.04;100.00;98653.81;10541524;28;20169;-77
2021/04/07 03:48:02;;;;;;;1.03;0.93;;;;;;;-0.02;100.00;98648.88;10539546;28;20622;-75
2021/04/07 03:53:22;;;;;;;2.93;0.80;;;;;;;-0.07;100.00;98662.59;10525706;28;20166;-75
2021/04/07 03:58:41;;;;;;;0.80;0.40;;;;;;;-0.15;100.00;98660.81;10540827;28;20170;-75
2021/04/07 04:03:59;;;;;;;2.93;1.20;;;;;;;-0.13;100.00;98658.56;10525351;28;20181;-75
2021/04/07 04:09:18;;;;;;;4.90;1.97;;;;;;;-0.16;100.00;98678.16;10539859;28;20240;-75
2021/04/07 04:14:37;;;;;;;1.07;0.97;;;;;;;-0.19;100.00;98680.75;10523519;28;20178;-74
2021/04/07 04:19:56;;;;;;;0.80;0.60;;;;;;;-0.28;100.00;98691.69;10539988;28;20197;-75
2021/04/07 04:25:18;;;;;;;0.80;0.60;;;;;;;-0.25;100.00;98717.22;10523999;28;20304;-75
2021/04/07 04:30:37;;;;;;;0.80;0.50;;;;;;;-0.22;100.00;98730.09;10538380;28;20182;-74
2021/04/07 04:35:57;;;;;;;0.90;0.67;;;;;;;-0.20;100.00;98736.72;10539657;28;20635;-75
2021/04/07 04:41:16;;;;;;;5.47;1.37;;;;;;;-0.12;100.00;98752.03;10524232;28;20166;-74
2021/04/07 04:46:35;;;;;;;0.90;0.60;;;;;;;-0.10;100.00;98754.41;10537937;28;20288;-75
2021/04/07 04:51:54;;;;;;;0.80;0.40;;;;;;;0.04;100.00;98756.41;10538088;28;20632;-75
2021/04/07 04:57:14;;;;;;;0.90;0.60;;;;;;;0.00;100.00;98765.56;10538986;28;20170;-75
2021/04/07 05:02:33;;;;;;;0.80;0.50;;;;;;;-0.02;100.00;98775.94;10533729;28;20198;-74
2021/04/07 05:07:52;;;;;;;5.50;1.50;;;;;;;-0.01;100.00;98770.19;10538510;28;20206;-74
2021/04/07 05:13:11;;;;;;;5.97;1.57;;;;;;;-0.01;100.00;98783.69;10523477;28;20227;-75
2021/04/07 05:18:30;;;;;;;2.30;1.00;;;;;;;-0.09;100.00;98796.53;10522297;28;20182;-74
2021/04/07 05:23:49;;;;;;;1.80;1.70;;;;;;;-0.13;100.00;98793.72;10537641;28;20304;-75
2021/04/07 05:29:07;;;;;;;1.13;1.03;;;;;;;-0.20;100.00;98804.28;10515322;28;20668;-74
2021/04/07 05:34:26;;;;;;;0.90;0.73;;;;;;;-0.14;100.00;98816.44;10496429;28;20529;-76
2021/04/07 05:39:45;;;;;;;0.80;0.57;;;;;;;0.05;100.00;98832.94;10481370;28;20175;-77
2021/04/07 05:45:05;;;;;;;3.87;0.87;;;;;;;0.05;100.00;98833.72;10495139;28;20183;-76
2021/04/07 05:50:24;;;;;;;3.83;2.30;;;;;;;0.00;100.00;98831.25;10495746;28;20664;-75
2021/04/07 05:55:49;;;;;;;17.77;2.50;;;;;;;0.00;100.00;98841.28;10496087;28;20629;-74
2021/04/07 06:01:08;;;;;;;1.17;0.93;;;;;;;0.28;99.13;98856.47;10481319;28;20625;-75
2021/04/07 06:06:27;;;;;;;2.93;1.57;;;;;;;0.86;94.16;98854.09;10503197;28;20237;-75
2021/04/07 06:11:46;;;;;;;1.10;0.80;;;;;;;0.98;89.82;98856.00;10487604;28;20174;-74
2021/04/07 06:17:05;;;;;;;1.13;1.03;;;;;;;0.96;89.03;98860.94;10501853;28;20565;-76
2021/04/07 06:22:24;;;;;;;0.83;0.47;;;;;;;0.97;89.03;98868.72;10502684;28;20198;-75
2021/04/07 06:27:47;;;;;;;0.90;0.77;;;;;;;0.99;88.45;98871.88;10501860;28;20230;-75
2021/04/07 06:33:09;;;;;;;1.20;0.83;;;;;;;1.20;88.74;98875.25;10500955;28;20193;-75
2021/04/07 06:38:28;;;;;;;2.40;0.90;;;;;;;1.10;88.21;98881.13;10502395;28;20175;-75
2021/04/07 06:43:50;;;;;;;3.13;2.47;;;;;;;1.21;88.78;98890.34;10486958;28;20178;-74
2021/04/07 06:49:12;;;;;;;1.00;0.83;;;;;;;1.25;85.21;98898.59;10501149;28;20202;-75
2021/04/07 06:54:33;;;;;;;1.10;0.93;;;;;;;1.05;86.48;98903.00;10486135;28;20174;-74
2021/04/07 06:59:52;;;;;;;1.13;1.00;;;;;;;1.11;86.48;98901.66;10499926;28;20175;-74
2021/04/07 07:05:11;;;;;;;0.80;0.40;;;;;;;1.15;85.18;98913.38;10485688;28;20202;-75
2021/04/07 07:10:42;;;;;;;0.87;0.60;;;;;;;1.10;85.00;98919.03;10499793;28;20214;-74
2021/04/07 07:16:01;;;;;;;1.90;1.37;;;;;;;1.23;87.92;98922.53;10498762;28;20183;-75
2021/04/07 07:21:21;;;;;;;0.90;0.60;;;;;;;1.32;88.59;98929.38;10496251;28;20186;-76
2021/04/07 07:26:41;;;;;;;0.80;0.50;;;;;;;1.47;89.90;98933.28;10499585;28;20226;-74
2021/04/07 07:32:02;;;;;;;7.77;1.57;;;;;;;1.61;90.74;98946.13;10483404;28;20182;-75
2021/04/07 07:37:24;;;;;;;0.90;0.60;;;;;;;1.61;87.20;98950.75;10499691;28;20166;-75
2021/04/07 07:42:43;;;;;;;1.23;1.13;;;;;;;2.01;87.00;98952.28;10499565;28;20178;-75
2021/04/07 08:00:35;;;;;;;0.90;0.60;;;;;;;2.50;82.72;98965.22;10504399;28;20186;-75
2021/04/07 08:05:56;;;;;;;0.80;0.43;;;;;;;2.51;80.82;98961.38;10499750;28;20661;-74
2021/04/07 08:11:15;;;;;;;0.90;0.57;;;;;;;2.58;75.83;98974.34;10483323;28;20179;-75
2021/04/07 08:16:37;;;;;;;1.93;1.83;;;;;;;2.72;73.43;98967.34;10497158;28;20179;-74
2021/04/07 08:21:58;;;;;;;0.87;0.60;;;;;;;2.37;76.57;98980.00;10482874;28;20202;-74
2021/04/07 08:27:21;;;;;;;1.20;0.90;;;;;;;2.30;78.42;98978.25;10496607;28;20222;-75
2021/04/07 08:32:40;;;;;;;2.30;0.97;;;;;;;2.66;78.00;98981.53;10496700;28;20179;-75
2021/04/07 08:38:02;;;;;;;1.10;0.80;;;;;;;2.82;76.28;98985.84;10497834;28;20179;-77
2021/04/07 08:43:27;;;;;;;0.80;0.50;;;;;;;2.83;78.69;98987.41;10497585;28;20175;-75
2021/04/07 08:48:46;;;;;;;0.80;0.40;;;;;;;2.66;80.85;98998.63;10495601;28;20202;-75
2021/04/07 08:54:05;;;;;;;0.80;0.50;;;;;;;2.30;87.73;99005.41;10508730;28;20190;-76
2021/04/07 08:59:24;;;;;;;1.00;0.53;;;;;;;2.47;83.34;98992.28;10495963;28;20183;-75
2021/04/07 09:04:47;;;;;;;0.97;0.70;;;;;;;2.93;77.15;98996.97;10496898;28;20171;-75
2021/04/07 09:10:16;;;;;;;1.00;0.73;;;;;;;3.40;73.56;98985.69;10496485;28;20657;-75
2021/04/07 09:16:01;;;;;;;1.53;0.80;;;;;;;3.35;74.08;98998.75;10480485;28;20265;-75
2021/04/07 09:21:22;;;;;;;0.80;0.50;;;;;;;3.30;72.43;98996.31;10496717;28;20289;-75
2021/04/07 09:26:46;;;;;;;0.90;0.77;;;;;;;3.06;73.11;99001.97;10480943;28;20320;-76
2021/04/07 09:32:15;;;;;;;1.73;0.87;;;;;;;2.81;78.98;99027.72;10495572;28;20580;-75
2021/04/07 09:37:39;;;;;;;0.80;0.47;;;;;;;2.43;89.04;99032.13;10485356;28;20633;-76
2021/04/07 09:42:59;;;;;;;0.93;0.70;;;;;;;1.89;100.00;99039.13;10488978;28;20183;-75
2021/04/07 09:48:18;;;;;;;0.90;0.73;;;;;;;1.26;100.00;99047.25;10502347;28;20681;-75
2021/04/07 09:53:37;;;;;;;0.90;0.63;;;;;;;1.12;100.00;99038.69;10488666;28;20621;-75
2021/04/07 09:58:57;;;;;;;0.90;0.60;;;;;;;1.53;100.00;99030.31;10487500;28;20171;-75
2021/04/07 10:04:16;;;;;;;1.20;0.87;;;;;;;1.59;100.00;99039.78;10503284;28;20182;-75
2021/04/07 10:09:35;;;;;;;0.97;0.70;;;;;;;1.68;100.00;99043.91;10487353;28;20293;-74
2021/04/07 10:14:59;;;;;;;0.90;0.63;;;;;;;1.71;100.00;99040.53;10501856;28;20170;-75
2021/04/07 10:20:28;;;;;;;1.70;1.03;;;;;;;2.31;100.00;99039.53;10487574;28;20174;-75
2021/04/07 10:25:53;;;;;;;0.90;0.80;;;;;;;2.68;100.00;99026.22;10502248;28;20866;-75
2021/04/07 10:31:12;;;;;;;1.73;1.10;;;;;;;2.66;100.00;99030.41;10501053;28;20258;-74
2021/04/07 10:36:32;;;;;;;1.67;0.70;;;;;;;2.92;100.00;99009.75;10486918;28;20629;-75
2021/04/07 10:41:52;;;;;;;0.90;0.60;;;;;;;2.80;100.00;99019.91;10513083;28;20182;-74
2021/04/07 10:47:16;;;;;;;0.83;0.50;;;;;;;2.93;100.00;99021.41;10499497;28;20206;-75
2021/04/07 10:52:36;;;;;;;1.20;1.10;;;;;;;3.13;100.00;99027.34;10501690;28;20198;-74
2021/04/07 10:57:57;;;;;;;0.90;0.80;;;;;;;3.24;100.00;99022.16;10501328;28;20179;-74
2021/04/07 11:03:29;;;;;;;1.13;1.03;;;;;;;3.12;100.00;99027.72;10499958;28;20628;-74
2021/04/07 11:08:53;;;;;;;0.80;0.50;;;;;;;3.02;100.00;99038.34;10485279;28;20218;-75
2021/04/07 11:14:12;;;;;;;1.30;0.60;;;;;;;3.18;100.00;99037.97;10499629;28;20171;-74
2021/04/07 11:19:38;;;;;;;0.80;0.60;;;;;;;2.81;100.00;99054.88;10485558;28;20182;-75
2021/04/07 11:24:57;;;;;;;1.37;1.27;;;;;;;3.27;100.00;99040.50;10500381;28;20674;-76
2021/04/07 11:30:20;;;;;;;1.13;0.67;;;;;;;2.89;100.00;99044.97;10498371;28;20202;-76
2021/04/07 11:35:44;;;;;;;1.07;0.70;;;;;;;2.95;100.00;99055.25;10499756;28;20170;-75
2021/04/07 11:46:34;;;;;;;1.10;0.73;;;;;;;3.38;100.00;99041.56;10497462;28;20211;-75
2021/04/07 11:51:53;;;;;;;1.10;0.80;;;;;;;2.99;100.00;99045.25;10499204;28;20258;-75
2021/04/07 11:57:12;;;;;;;0.90;0.50;;;;;;;3.01;100.00;99053.06;10499007;28;20178;-76
2021/04/07 12:02:34;;;;;;;1.43;1.17;;;;;;;2.82;100.00;99069.25;10497202;28;20202;-76
2021/04/07 12:07:54;;;;;;;0.90;0.70;;;;;;;2.74;100.00;99062.06;10570732;28;20208;-77
2021/04/07 12:13:13;;;;;;;0.80;0.60;;;;;;;2.64;100.00;99071.50;10582373;28;20524;-75
2021/04/07 12:18:32;;;;;;;0.80;0.50;;;;;;;2.49;100.00;99053.25;10565635;28;20256;-75
2021/04/07 12:23:51;;;;;;;0.80;0.40;;;;;;;2.61;100.00;99071.41;10566440;28;20280;-75
2021/04/07 12:29:10;;;;;;;1.00;0.80;;;;;;;2.78;100.00;99066.44;10564454;28;20224;-75
2021/04/07 12:34:29;;;;;;;0.80;0.47;;;;;;;2.77;100.00;99064.84;10581373;28;20173;-76
2021/04/07 12:39:49;;;;;;;0.80;0.60;;;;;;;2.85;100.00;99072.06;10581056;28;20280;-76
2021/04/07 12:45:09;;;;;;;1.37;1.23;;;;;;;2.86;100.00;99054.63;10564992;28;20177;-74
2021/04/07 12:50:28;;;;;;;0.80;0.40;;;;;;;2.81;100.00;99064.94;10481993;28;20562;-77
2021/04/07 12:55:47;;;;;;;0.90;0.50;;;;;;;2.84;100.00;99073.19;10512580;28;20181;-76
2021/04/07 13:01:05;;;;;;;1.23;0.60;;;;;;;2.89;100.00;99070.22;10522735;28;20209;-75
2021/04/07 13:06:24;;;;;;;1.20;1.10;;;;;;;2.66;100.00;99063.81;10539107;28;20239;-75
2021/04/07 13:11:43;;;;;;;0.80;0.40;;;;;;;2.62;100.00;99062.13;10526782;28;20692;-75
2021/04/07 13:17:02;;;;;;;0.90;0.60;;;;;;;2.62;100.00;99062.91;10519692;28;20263;-75
2021/04/07 13:22:21;;;;;;;0.87;0.70;;;;;;;2.50;100.00;99092.81;10504940;28;20222;-78
2021/04/07 13:27:41;;;;;;;1.73;1.40;;;;;;;2.54;100.00;99073.94;10488950;28;20684;-76
2021/04/07 13:33:10;;;;;;;0.80;0.40;;;;;;;2.56;100.00;99069.75;10503628;28;20186;-76
2021/04/07 13:38:47;;;;;;;1.00;0.70;;;;;;;2.67;100.00;99070.03;10489291;28;20598;-74
2021/04/07 13:44:06;;;;;;;0.80;0.40;;;;;;;2.76;100.00;99060.56;10503171;28;20179;-74
2021/04/07 13:49:26;;;;;;;0.90;0.70;;;;;;;2.81;100.00;99075.81;10503455;28;20203;-74
2021/04/07 13:54:45;;;;;;;0.83;0.57;;;;;;;2.81;100.00;99067.66;10503742;28;20171;-76
2021/04/07 14:00:05;;;;;;;1.10;0.80;;;;;;;2.90;100.00;99077.25;10496292;28;20218;-77
2021/04/07 14:05:25;;;;;;;3.33;0.80;;;;;;;3.27;100.00;99059.53;10510129;28;20199;-79
2021/04/07 14:10:46;;;;;;;5.43;1.33;;;;;;;3.82;99.74;99070.13;10529027;28;20209;-78
2021/04/07 14:16:06;;;;;;;6.07;1.67;;;;;;;4.31;94.30;99063.81;10528278;28;20182;-76
2021/04/07 14:21:25;;;;;;;0.80;0.50;;;;;;;4.72;93.69;99071.25;10529415;28;20225;-76
2021/04/07 14:26:44;;;;;;;1.03;0.83;;;;;;;4.48;90.66;99075.06;10528535;28;20233;-76
2021/04/07 14:32:04;;;;;;;1.50;1.40;;;;;;;4.72;88.55;99078.25;10543147;28;20625;-76
2021/04/07 14:37:23;;;;;;;1.17;1.07;;;;;;;4.65;89.96;99074.63;10544157;28;20173;-76
2021/04/07 14:42:42;;;;;;;1.13;0.90;;;;;;;4.44;90.30;99074.19;10544032;28;20186;-76
2021/04/07 14:48:01;;;;;;;2.73;1.40;;;;;;;4.50;90.12;99069.25;10526821;28;20570;-76
2021/04/07 14:53:21;;;;;;;2.23;1.23;;;;;;;4.30;91.72;99082.09;10543400;28;20178;-79
2021/04/07 14:58:40;;;;;;;0.90;0.50;;;;;;;4.13;94.97;99079.00;10543212;28;20174;-76
2021/04/07 15:03:59;;;;;;;0.90;0.50;;;;;;;3.93;94.48;99091.00;10527789;28;20174;-76
2021/04/07 15:09:18;;;;;;;1.80;1.60;;;;;;;3.96;93.49;99080.19;10542308;28;20213;-76
2021/04/07 15:14:38;;;;;;;1.00;0.80;;;;;;;3.95;95.00;99105.84;10541296;28;20253;-75
2021/04/07 15:19:57;;;;;;;0.93;0.70;;;;;;;3.83;100.00;99104.38;10542380;28;20221;-78
2021/04/07 15:25:21;;;;;;;1.17;0.83;;;;;;;3.05;100.00;99124.56;10541789;28;20210;-76
2021/04/07 15:30:47;;;;;;;0.80;0.50;;;;;;;2.59;100.00;99117.13;10540192;28;20206;-77
2021/04/07 15:36:07;;;;;;;0.80;0.40;;;;;;;2.27;100.00;99126.28;10541129;28;20174;-76
2021/04/07 15:41:27;;;;;;;0.80;0.60;;;;;;;2.05;100.00;99117.88;10526176;28;20260;-76
2021/04/07 15:46:45;;;;;;;1.63;1.43;;;;;;;1.97;100.00;99132.34;10539952;28;20704;-75
2021/04/07 15:52:28;;;;;;;0.90;0.50;;;;;;;1.90;100.00;99124.00;10541053;28;20829;-76
2021/04/07 15:57:47;;;;;;;1.00;0.80;;;;;;;1.99;100.00;99113.81;10541024;28;20177;-76
2021/04/07 16:03:06;;;;;;;1.53;0.60;;;;;;;1.94;100.00;99117.56;10539318;28;20643;-76
2021/04/07 16:08:26;;;;;;;1.93;1.80;;;;;;;1.95;100.00;99113.72;10540293;28;20209;-77
2021/04/07 16:13:45;;;;;;;1.67;1.03;;;;;;;1.95;100.00;99119.13;10540277;28;20628;-75
2021/04/07 16:19:06;;;;;;;1.17;0.67;;;;;;;1.82;100.00;99119.50;10540187;28;20554;-78
2021/04/07 16:24:25;;;;;;;1.97;0.90;;;;;;;1.80;100.00;99116.31;10539719;28;20214;-75
2021/04/07 16:29:44;;;;;;;1.87;1.30;;;;;;;1.77;100.00;99120.50;10551051;28;20600;-76
2021/04/07 16:35:05;;;;;;;1.10;1.00;;;;;;;1.71;100.00;99126.50;10539737;28;20178;-77
2021/04/07 16:40:24;;;;;;;0.90;0.70;;;;;;;1.74;100.00;99128.53;10539452;28;20186;-77
2021/04/07 16:45:43;;;;;;;0.80;0.43;;;;;;;1.65;100.00;99128.66;10537247;28;20173;-77
2021/04/07 16:51:01;;;;;;;1.10;0.83;;;;;;;1.54;100.00;99129.44;10539206;28;20209;-76
2021/04/07 16:56:20;;;;;;;1.17;0.70;;;;;;;1.42;100.00;99134.88;10539362;28;20179;-78
2021/04/07 17:01:40;;;;;;;0.87;0.50;;;;;;;1.41;100.00;99136.00;10537801;28;20173;-79
2021/04/07 17:07:01;;;;;;;0.93;0.77;;;;;;;1.36;100.00;99138.94;10538838;28;20202;-77
2021/04/07 17:12:21;;;;;;;1.40;1.30;;;;;;;1.33;100.00;99146.97;10538852;28;20177;-78
2021/04/07 17:17:41;;;;;;;1.40;0.97;;;;;;;1.33;100.00;99146.97;10537510;28;20545;-76
2021/04/07 17:23:00;;;;;;;1.60;0.83;;;;;;;1.36;100.00;99155.19;10538720;28;20627;-78
2021/04/07 17:28:19;;;;;;;6.80;2.00;;;;;;;1.54;100.00;99153.06;10522484;28;20316;-77
2021/04/07 17:33:38;;;;;;;1.10;1.00;;;;;;;1.51;100.00;99159.13;10507968;28;20616;-78
2021/04/07 17:38:56;;;;;;;14.47;1.37;;;;;;;1.49;100.00;99162.19;10523072;28;20174;-77
2021/04/07 17:44:16;;;;;;;0.93;0.83;;;;;;;1.49;100.00;99164.13;10537230;28;20249;-75
2021/04/07 17:49:35;;;;;;;2.33;1.53;;;;;;;1.55;100.00;99166.25;10537715;28;20229;-78
2021/04/07 17:54:54;;;;;;;1.20;1.10;;;;;;;1.61;100.00;99178.47;10538054;28;20175;-76
2021/04/07 18:00:17;;;;;;;0.90;0.70;;;;;;;1.71;100.00;99178.81;10543493;28;20540;-76
2021/04/07 18:05:37;;;;;;;0.90;0.77;;;;;;;1.81;100.00;99183.00;10544669;28;20182;-77
2021/04/07 18:10:56;;;;;;;1.23;1.13;;;;;;;1.83;100.00;99186.94;10544678;28;20623;-76
2021/04/07 18:16:15;;;;;;;1.53;1.20;;;;;;;1.88;100.00;99188.63;10528310;28;20174;-76
2021/04/07 18:21:34;;;;;;;1.43;1.33;;;;;;;1.91;100.00;99215.09;10544854;28;20194;-78
2021/04/07 18:26:52;;;;;;;1.10;0.70;;;;;;;1.95;100.00;99222.22;10528459;28;20233;-76
2021/04/07 18:32:11;;;;;;;1.87;1.77;;;;;;;2.05;100.00;99226.38;10543357;28;20181;-78
2021/04/07 18:37:31;;;;;;;1.63;1.07;;;;;;;2.14;100.00;99232.50;10544285;28;20186;-77
2021/04/07 18:42:50;;;;;;;1.00;0.90;;;;;;;2.21;100.00;99238.94;10544057;28;20178;-77
2021/04/07 18:48:09;;;;;;;8.63;1.87;;;;;;;2.32;100.00;99258.25;10542318;28;20201;-78
2021/04/07 18:53:28;;;;;;;2.70;2.10;;;;;;;2.36;100.00;99251.81;10543410;28;20260;-76
2021/04/07 18:58:47;;;;;;;3.40;1.63;;;;;;;2.48;100.00;99262.63;10543602;28;20250;-78
2021/04/07 19:04:06;;;;;;;1.40;1.30;;;;;;;2.60;100.00;99263.41;10527639;28;20182;-76
2021/04/07 19:09:26;;;;;;;9.60;1.57;;;;;;;2.68;100.00;99278.00;10541686;28;20210;-76
2021/04/07 19:14:47;;;;;;;1.17;1.07;;;;;;;2.78;100.00;99286.47;10541484;28;20197;-76
2021/04/07 19:20:08;;;;;;;0.80;0.50;;;;;;;2.82;100.00;99302.84;10543285;28;20193;-76
2021/04/07 19:25:28;;;;;;;1.67;0.60;;;;;;;2.79;100.00;99314.41;10541988;28;20225;-77
2021/04/07 19:30:47;;;;;;;1.27;1.17;;;;;;;2.49;100.00;99321.22;10540327;28;20209;-76
2021/04/07 19:36:06;;;;;;;0.90;0.70;;;;;;;2.36;100.00;99317.72;10541587;28;20502;-77
2021/04/07 19:41:25;;;;;;;1.10;1.00;;;;;;;2.41;100.00;99322.16;10541657;28;20526;-78
2021/04/07 19:46:44;;;;;;;1.33;1.23;;;;;;;2.49;100.00;99329.38;10540145;28;20242;-77
2021/04/07 19:52:06;;;;;;;1.03;0.93;;;;;;;2.47;100.00;99335.16;10541292;28;20174;-77
2021/04/07 19:57:29;;;;;;;0.97;0.80;;;;;;;2.57;100.00;99348.28;10541131;28;20252;-78
2021/04/07 20:02:49;;;;;;;1.10;0.73;;;;;;;2.55;100.00;99361.41;10539694;28;20178;-77
2021/04/07 20:08:14;;;;;;;1.57;1.47;;;;;;;2.63;100.00;99355.06;10540546;28;20217;-76
2021/04/07 20:13:33;;;;;;;4.60;1.27;;;;;;;2.64;100.00;99355.84;10540562;28;20202;-77
2021/04/07 20:18:51;;;;;;;0.93;0.67;;;;;;;2.66;100.00;99362.53;10523815;28;20193;-77
2021/04/07 20:24:10;;;;;;;3.30;3.10;;;;;;;2.69;100.00;99366.50;10540353;28;20221;-77
2021/04/07 20:29:30;;;;;;;1.07;0.80;;;;;;;2.71;100.00;99375.06;10538621;28;20240;-77
2021/04/07 20:34:50;;;;;;;1.20;1.10;;;;;;;2.70;100.00;99374.28;10539918;28;20174;-77
2021/04/07 20:40:10;;;;;;;0.80;0.50;;;;;;;2.66;100.00;99372.59;10539502;28;20220;-77
2021/04/07 20:45:30;;;;;;;1.47;1.37;;;;;;;2.68;100.00;99381.19;10538308;28;20669;-77
2021/04/07 20:50:50;;;;;;;0.80;0.50;;;;;;;2.66;100.00;99375.31;10538456;28;20663;-79
2021/04/07 20:56:09;;;;;;;0.80;0.50;;;;;;;2.59;100.00;99384.03;10524173;28;20174;-78
2021/04/07 21:01:28;;;;;;;1.77;1.27;;;;;;;2.55;100.00;99388.56;10537702;28;20178;-81
2021/04/07 21:06:47;;;;;;;1.00;0.90;;;;;;;2.53;100.00;99390.03;10538974;28;20731;-80
2021/04/07 21:12:06;;;;;;;4.60;1.97;;;;;;;2.54;100.00;99403.25;10538961;28;20174;-80
2021/04/07 21:17:25;;;;;;;1.30;1.20;;;;;;;2.40;100.00;99410.13;10537566;28;20201;-78
2021/04/07 21:22:44;;;;;;;0.80;0.50;;;;;;;2.36;100.00;99415.47;10538664;28;20182;-78
2021/04/07 21:28:03;;;;;;;1.30;1.10;;;;;;;2.29;100.00;99422.59;10537865;28;20304;-77
2021/04/07 21:33:22;;;;;;;0.83;0.57;;;;;;;2.24;100.00;99422.00;10541559;28;20174;-78
2021/04/07 21:38:41;;;;;;;2.03;1.27;;;;;;;2.20;100.00;99432.75;10546536;28;20178;-78
2021/04/07 21:44:00;;;;;;;0.93;0.83;;;;;;;2.10;100.00;99443.25;10545099;28;20268;-78
2021/04/07 21:49:20;;;;;;;0.97;0.87;;;;;;;2.01;100.00;99456.09;10545876;28;20206;-77
2021/04/07 21:54:39;;;;;;;0.90;0.60;;;;;;;2.00;100.00;99460.72;10546183;28;20174;-77
2021/04/07 21:59:58;;;;;;;0.80;0.40;;;;;;;1.87;100.00;99456.38;10544499;28;20249;-78
2021/04/07 22:05:17;;;;;;;3.47;3.13;;;;;;;1.83;100.00;99468.22;10545642;28;20191;-77
2021/04/07 22:10:38;;;;;;;0.80;0.60;;;;;;;1.85;100.00;99466.75;10529440;28;20201;-79
2021/04/07 22:15:58;;;;;;;0.80;0.50;;;;;;;1.90;100.00;99471.19;10543525;28;20174;-79
2021/04/07 22:21:21;;;;;;;0.80;0.40;;;;;;;1.84;100.00;99477.94;10544746;28;20648;-78
2021/04/07 22:26:41;;;;;;;1.50;1.40;;;;;;;1.93;100.00;99475.97;10543968;28;20226;-80
2021/04/07 22:32:00;;;;;;;1.30;1.20;;;;;;;1.94;100.00;99472.91;10527920;28;20174;-78
2021/04/07 22:37:19;;;;;;;0.93;0.80;;;;;;;1.96;100.00;99478.00;10544219;28;20578;-79
2021/04/07 22:42:41;;;;;;;1.73;0.97;;;;;;;2.02;98.50;99479.38;10543017;28;20166;-77
2021/04/07 22:48:00;;;;;;;2.70;2.00;;;;;;;2.02;98.54;99490.25;10542098;28;20202;-80
2021/04/07 22:53:19;;;;;;;1.43;1.33;;;;;;;1.95;99.70;99493.47;10543674;28;20178;-78
2021/04/07 22:58:39;;;;;;;2.37;1.70;;;;;;;2.02;97.74;99493.72;10543394;28;20526;-78
2021/04/07 23:03:58;;;;;;;0.80;0.50;;;;;;;2.10;96.53;99503.72;10542702;28;20212;-79
2021/04/07 23:09:17;;;;;;;1.03;0.93;;;;;;;2.05;98.68;99506.66;10527293;28;20205;-77
2021/04/07 23:14:36;;;;;;;1.33;0.70;;;;;;;2.10;97.87;99511.84;10526015;28;20620;-77
2021/04/07 23:19:55;;;;;;;1.10;0.80;;;;;;;2.12;97.30;99509.59;10542651;28;20193;-79
2021/04/07 23:25:14;;;;;;;1.33;0.80;;;;;;;2.05;100.00;99512.06;10541972;28;20221;-77
2021/04/07 23:30:34;;;;;;;1.27;0.80;;;;;;;1.99;100.00;99507.94;10524630;28;20214;-79
2021/04/07 23:35:53;;;;;;;0.80;0.40;;;;;;;1.94;99.91;99508.16;10541804;28;20174;-79
2021/04/07 23:41:12;;;;;;;2.10;1.57;;;;;;;1.82;100.00;99505.38;10541686;28;20178;-78
2021/04/07 23:46:32;;;;;;;0.80;0.53;;;;;;;1.79;100.00;99507.97;10540155;28;20178;-78
2021/04/07 23:51:51;;;;;;;0.90;0.70;;;;;;;1.66;100.00;99509.03;10541109;28;20604;-78
2021/04/07 23:57:10;;;;;;;1.43;1.10;;;;;;;1.58;100.00;99515.31;10540785;28;20552;-78
